KWDG/WDG METAR and TAF weather

Enter ICAO airport designator
Station Type Date Time Source
KWDG METAR 2019/11/22 00:48 UTC NOAA

KWDG 220048Z 01012KT 10SM -RA BKN022 OVC065 06/03 A3009


Station Type Date Time Source
KWDG Decoded METAR 2019/11/22 00:48 UTC NOAA

Enid, Enid Woodring Regional Airport, OK, United States (KWDG) 36-22-45N 097-47-28W
Nov 21, 2019 - 07:48 PM EST / 2019.11.22 0048 UTC
Wind: from the N (010 degrees) at 14 MPH (12 KT):0
Visibility: 10 mile(s):0
Sky conditions: overcast
Weather: light rain
Temperature: 42 F (6 C)
Dew Point: 37 F (3 C)
Relative Humidity: 81%
Pressure (altimeter): 30.09 in. Hg (1018 hPa)
ob: KWDG 220048Z 01012KT 10SM -RA BKN022 OVC065 06/03 A3009
cycle: 1

Station Type Date Time Source
KWDG TAF UTC NOAA

Error!

Example: see airport list